Time;durP1;ratioP1;P1;durP2;ratioP2;P2;SDS_P1;SDS_P2;PMS_P1;PMS_P2;Temp;Humidity;BMP_temperature;BMP_pressure;BME280_temperature;BME280_humidity;BME280_pressure;Samples;Min_cycle;Max_cycle;Signal;HPM_P1;HPM_P2
2022/07/24 00:01:20;;;;;;;13.00;11.73;;;;;;;20.90;80.92;94373.09;5049869;28;20197;-56
2022/07/24 00:04:05;;;;;;;12.27;11.27;;;;;;;20.93;80.73;94377.47;5047573;28;20237;-56
2022/07/24 00:06:50;;;;;;;16.70;11.77;;;;;;;20.90;81.67;94373.09;5047640;28;20356;-56
2022/07/24 00:09:34;;;;;;;13.07;11.07;;;;;;;20.89;81.57;94383.03;5045002;28;21267;-56
2022/07/24 00:12:18;;;;;;;12.60;10.67;;;;;;;20.94;81.09;94376.09;5044605;28;20193;-56
2022/07/24 00:15:03;;;;;;;11.63;10.48;;;;;;;20.91;81.05;94380.28;5039778;28;20205;-56
2022/07/24 00:17:47;;;;;;;12.80;11.52;;;;;;;20.88;80.54;94373.00;5051846;28;20300;-56
2022/07/24 00:20:31;;;;;;;12.53;11.53;;;;;;;20.94;80.69;94384.66;5043186;28;20252;-56
2022/07/24 00:23:15;;;;;;;11.83;10.70;;;;;;;20.89;80.64;94375.22;5051564;28;20316;-56
2022/07/24 00:25:59;;;;;;;13.77;11.05;;;;;;;21.00;80.59;94379.94;5046316;28;20217;-56
2022/07/24 00:28:43;;;;;;;12.52;11.27;;;;;;;21.00;80.44;94370.66;5039758;28;20241;-56
2022/07/24 00:31:27;;;;;;;11.87;10.67;;;;;;;21.06;79.44;94362.34;5051369;28;20198;-56
2022/07/24 00:34:11;;;;;;;13.82;11.57;;;;;;;21.07;79.55;94369.50;5050454;28;20332;-55
2022/07/24 00:36:55;;;;;;;12.90;11.73;;;;;;;21.05;80.24;94366.56;5042099;28;20701;-56
2022/07/24 00:39:39;;;;;;;13.67;11.43;;;;;;;21.18;79.48;94368.53;5047073;28;20209;-56
2022/07/24 00:42:23;;;;;;;12.88;11.68;;;;;;;21.15;79.46;94366.25;5049437;28;20221;-56
2022/07/24 00:45:07;;;;;;;12.20;11.00;;;;;;;21.04;79.96;94373.66;5044053;28;20198;-56
2022/07/24 00:47:52;;;;;;;12.70;11.50;;;;;;;21.01;80.13;94366.41;5048666;28;20213;-56
2022/07/24 00:50:37;;;;;;;12.88;11.30;;;;;;;20.94;80.73;94367.56;5046616;28;20205;-56
2022/07/24 00:53:22;;;;;;;12.48;11.18;;;;;;;20.95;80.69;94374.72;5040584;28;20624;-56
2022/07/24 00:56:06;;;;;;;13.95;12.27;;;;;;;20.95;80.96;94369.03;5052602;28;20275;-56
2022/07/24 00:58:50;;;;;;;12.70;11.40;;;;;;;20.94;80.96;94373.25;5034410;28;20261;-56
2022/07/24 01:01:34;;;;;;;12.37;11.13;;;;;;;20.91;81.39;94374.56;5044447;28;20200;-56
2022/07/24 01:04:19;;;;;;;12.10;10.90;;;;;;;20.92;81.09;94373.19;5056277;28;20232;-56
2022/07/24 01:07:03;;;;;;;13.60;12.27;;;;;;;20.93;81.31;94375.38;5048928;28;20662;-56
2022/07/24 01:09:47;;;;;;;12.63;11.43;;;;;;;20.88;81.02;94375.88;5045709;28;20256;-56
2022/07/24 01:12:33;;;;;;;13.38;12.07;;;;;;;20.91;80.66;94368.88;5040528;28;20236;-56
2022/07/24 01:15:17;;;;;;;12.87;11.63;;;;;;;20.96;80.69;94367.66;5040120;28;20704;-56
2022/07/24 01:18:02;;;;;;;12.40;11.30;;;;;;;20.94;80.76;94361.84;5045189;28;20698;-56
2022/07/24 01:20:48;;;;;;;14.98;13.40;;;;;;;21.03;80.24;94351.53;5049191;28;20805;-56
2022/07/24 01:23:33;;;;;;;13.80;12.60;;;;;;;21.08;79.60;94347.44;5057402;28;20224;-56
2022/07/24 01:26:17;;;;;;;14.13;12.73;;;;;;;21.04;80.20;94350.88;5046909;28;20210;-56
2022/07/24 01:29:01;;;;;;;14.63;13.07;;;;;;;20.99;80.85;94352.09;5050185;28;20209;-56
2022/07/24 01:31:45;;;;;;;13.17;11.83;;;;;;;20.96;80.19;94359.09;5048630;28;20678;-56
2022/07/24 01:34:29;;;;;;;14.67;13.13;;;;;;;20.84;80.86;94364.31;5040899;28;20205;-56
2022/07/24 01:37:13;;;;;;;13.47;12.17;;;;;;;20.81;81.62;94359.91;5051849;28;20239;-56
2022/07/24 01:39:57;;;;;;;12.53;11.33;;;;;;;20.73;82.10;94365.31;5047082;28;20572;-56
2022/07/24 01:42:41;;;;;;;14.67;12.50;;;;;;;20.70;82.03;94360.88;5046736;28;20221;-56
2022/07/24 01:45:25;;;;;;;12.87;11.47;;;;;;;20.64;82.69;94374.88;5046050;28;20284;-56
2022/07/24 01:48:09;;;;;;;13.73;12.47;;;;;;;20.70;81.72;94366.59;5051787;28;20242;-56
2022/07/24 01:50:53;;;;;;;14.90;11.75;;;;;;;20.69;81.73;94365.13;5049642;28;20267;-56
2022/07/24 01:53:37;;;;;;;13.73;12.43;;;;;;;20.69;82.07;94359.41;5041929;28;20616;-56
2022/07/24 01:56:22;;;;;;;16.03;13.10;;;;;;;20.67;82.36;94356.50;5047044;28;20689;-56
2022/07/24 01:59:05;;;;;;;15.50;11.30;;;;;;;20.72;81.53;94352.44;5046448;28;20271;-56
2022/07/24 02:01:49;;;;;;;13.30;12.10;;;;;;;20.72;80.98;94353.16;5047984;28;20735;-56
2022/07/24 02:04:34;;;;;;;12.80;11.40;;;;;;;20.65;81.64;94357.16;5052843;28;20232;-56
2022/07/24 02:07:18;;;;;;;13.37;12.07;;;;;;;20.59;81.75;94363.34;5054147;28;20259;-56
2022/07/24 02:10:03;;;;;;;13.43;12.03;;;;;;;20.54;81.87;94361.72;5043871;28;20216;-56
2022/07/24 02:12:47;;;;;;;13.90;12.53;;;;;;;20.53;81.57;94365.94;5049311;28;20577;-56
2022/07/24 02:15:31;;;;;;;13.65;12.27;;;;;;;20.48;81.96;94352.19;5044487;28;20242;-56
2022/07/24 02:18:15;;;;;;;14.97;12.07;;;;;;;20.37;82.08;94348.16;5046744;28;20259;-56
2022/07/24 02:20:59;;;;;;;14.73;12.97;;;;;;;20.34;82.61;94349.47;5044250;28;20239;-56
2022/07/24 02:23:43;;;;;;;13.97;12.57;;;;;;;20.24;83.46;94351.16;5044476;28;20225;-56
2022/07/24 02:26:27;;;;;;;14.03;12.57;;;;;;;20.24;83.37;94351.88;5042281;28;20240;-56
2022/07/24 02:29:11;;;;;;;13.40;12.07;;;;;;;20.16;83.93;94354.38;5048522;28;20292;-56
2022/07/24 02:31:55;;;;;;;14.50;13.07;;;;;;;20.12;83.54;94354.22;5038250;28;20237;-56
2022/07/24 02:34:39;;;;;;;13.83;12.43;;;;;;;20.09;83.86;94358.34;5049217;28;20256;-56
2022/07/24 02:37:23;;;;;;;14.20;12.50;;;;;;;20.08;83.81;94356.88;5043413;28;20210;-56
2022/07/24 02:40:09;;;;;;;13.50;12.30;;;;;;;19.98;84.60;94353.59;5048096;28;20356;-56
2022/07/24 02:42:53;;;;;;;13.87;12.47;;;;;;;20.00;84.74;94357.25;5045299;28;20220;-56
2022/07/24 02:45:37;;;;;;;14.10;12.77;;;;;;;19.98;84.54;94362.13;5042307;28;20294;-56
2022/07/24 02:48:21;;;;;;;14.23;12.83;;;;;;;20.01;84.00;94353.03;5044013;28;20257;-56
2022/07/24 02:51:05;;;;;;;14.20;12.90;;;;;;;20.04;83.61;94351.00;5033634;28;20201;-56
2022/07/24 02:53:49;;;;;;;14.10;12.80;;;;;;;20.09;83.12;94358.34;5047764;28;20614;-56
2022/07/24 02:56:33;;;;;;;15.70;13.03;;;;;;;20.09;83.58;94352.66;5053364;28;20201;-56
2022/07/24 02:59:17;;;;;;;13.93;12.53;;;;;;;20.03;83.47;94352.38;5046340;28;21101;-56
2022/07/24 03:02:02;;;;;;;15.07;13.30;;;;;;;19.83;85.21;94357.19;5042697;28;20201;-56
2022/07/24 03:04:47;;;;;;;14.60;12.83;;;;;;;19.74;85.40;94354.00;5051060;28;20221;-56
2022/07/24 03:07:32;;;;;;;14.80;13.50;;;;;;;19.68;85.45;94350.91;5040605;28;20886;-56
2022/07/24 03:10:16;;;;;;;15.37;13.47;;;;;;;19.61;85.83;94354.13;5043278;28;20229;-56
2022/07/24 03:13:00;;;;;;;16.20;14.63;;;;;;;19.45;88.19;94356.19;5036886;28;20583;-56
2022/07/24 03:15:44;;;;;;;15.40;12.80;;;;;;;19.37;87.87;94357.31;5044238;28;20204;-56
2022/07/24 03:18:28;;;;;;;14.77;12.97;;;;;;;19.30;87.89;94346.31;5053419;28;20204;-56
2022/07/24 03:21:13;;;;;;;14.03;12.63;;;;;;;19.26;87.16;94363.16;5048235;28;20264;-57
2022/07/24 03:23:58;;;;;;;14.70;13.30;;;;;;;19.13;86.72;94349.78;5044555;28;20787;-56
2022/07/24 03:26:42;;;;;;;13.97;12.70;;;;;;;19.05;87.59;94352.25;5046179;28;20209;-56
2022/07/24 03:29:27;;;;;;;15.13;13.60;;;;;;;18.96;88.34;94351.84;5049572;28;20249;-56
2022/07/24 03:32:11;;;;;;;15.50;12.90;;;;;;;18.95;88.54;94353.22;5043613;28;20257;-56
2022/07/24 03:34:55;;;;;;;14.53;13.07;;;;;;;18.89;88.54;94355.03;5041126;28;20745;-56
2022/07/24 03:37:39;;;;;;;15.27;13.63;;;;;;;18.84;88.46;94351.28;5046306;28;20208;-56
2022/07/24 03:40:23;;;;;;;16.40;13.70;;;;;;;18.78;89.13;94348.16;5052492;28;20197;-56
2022/07/24 03:43:07;;;;;;;16.50;14.77;;;;;;;18.72;89.77;94352.81;5051081;28;20220;-56
2022/07/24 03:45:51;;;;;;;17.40;14.13;;;;;;;18.74;89.58;94350.06;5047729;28;20234;-56
2022/07/24 03:48:34;;;;;;;14.47;13.07;;;;;;;18.74;88.54;94356.50;5056296;28;20260;-56
2022/07/24 03:51:18;;;;;;;15.10;13.27;;;;;;;18.78;87.89;94356.66;5054171;28;20742;-56
2022/07/24 03:54:03;;;;;;;14.93;13.53;;;;;;;18.69;87.31;94354.81;5049596;28;20570;-56
2022/07/24 03:56:49;;;;;;;15.47;14.07;;;;;;;18.64;87.70;94363.78;5055924;28;20579;-56
2022/07/24 03:59:32;;;;;;;14.37;12.93;;;;;;;18.67;86.95;94363.25;5050855;28;20647;-56
2022/07/24 04:02:16;;;;;;;15.47;13.90;;;;;;;18.75;86.60;94357.97;5046253;28;20335;-56
2022/07/24 04:05:00;;;;;;;15.93;14.23;;;;;;;18.85;85.41;94366.94;5052306;28;20198;-56
2022/07/24 04:07:44;;;;;;;15.30;13.80;;;;;;;18.90;85.72;94362.94;5064595;28;20207;-56
2022/07/24 04:10:28;;;;;;;15.27;13.43;;;;;;;19.01;85.89;94360.56;5047212;28;20244;-56
2022/07/24 04:13:12;;;;;;;14.77;13.40;;;;;;;19.35;83.78;94370.69;5044118;28;20198;-56
2022/07/24 04:15:57;;;;;;;14.30;13.00;;;;;;;20.18;79.08;94368.69;5050991;28;20209;-56
2022/07/24 04:18:41;;;;;;;13.63;12.27;;;;;;;20.99;74.88;94374.88;5054367;28;20214;-56
2022/07/24 04:21:25;;;;;;;12.73;11.40;;;;;;;21.57;71.07;94372.84;5057317;28;20233;-56
2022/07/24 04:24:09;;;;;;;13.73;11.40;;;;;;;22.07;68.94;94374.75;5048009;28;20231;-56
2022/07/24 04:26:52;;;;;;;13.57;12.20;;;;;;;22.47;67.29;94377.53;5054340;28;20693;-56
2022/07/24 04:29:36;;;;;;;12.77;11.57;;;;;;;22.73;66.54;94378.44;5046463;28;20240;-56
2022/07/24 04:32:20;;;;;;;12.38;11.02;;;;;;;22.89;65.17;94381.09;5047473;28;20233;-56
2022/07/24 04:35:06;;;;;;;12.17;10.97;;;;;;;22.16;67.35;94390.75;5049293;28;20259;-56
2022/07/24 04:37:50;;;;;;;11.67;10.57;;;;;;;21.78;68.38;94386.50;5059078;28;20696;-56
2022/07/24 04:40:34;;;;;;;14.03;12.77;;;;;;;21.61;70.31;94381.56;5044164;28;20273;-56
2022/07/24 04:43:18;;;;;;;13.68;12.43;;;;;;;21.50;71.05;94379.72;5050779;28;20753;-56
2022/07/24 04:46:03;;;;;;;14.00;12.70;;;;;;;21.38;71.57;94383.56;5049118;28;20264;-56
2022/07/24 04:48:47;;;;;;;13.80;12.50;;;;;;;21.20;72.44;94380.03;5049083;28;20213;-56
2022/07/24 04:51:31;;;;;;;13.10;11.90;;;;;;;21.27;72.29;94378.16;5049199;28;20200;-56
2022/07/24 04:54:15;;;;;;;13.00;11.80;;;;;;;21.52;71.51;94382.66;5048815;28;20597;-56
2022/07/24 04:56:59;;;;;;;14.07;12.85;;;;;;;21.67;71.15;94384.63;5059852;28;20247;-56
2022/07/24 04:59:43;;;;;;;12.57;11.47;;;;;;;21.83;70.38;94388.09;5058612;28;20228;-56
2022/07/24 05:02:28;;;;;;;13.00;11.52;;;;;;;22.02;69.66;94381.69;5042679;28;20221;-56
2022/07/24 05:05:12;;;;;;;14.82;13.30;;;;;;;21.93;70.41;94388.47;5046051;28;20680;-56
2022/07/24 05:07:56;;;;;;;13.85;12.55;;;;;;;22.10;70.01;94387.69;5047950;28;20264;-56
2022/07/24 05:10:40;;;;;;;15.65;12.45;;;;;;;22.14;69.83;94387.84;5061560;28;20252;-56
2022/07/24 05:13:24;;;;;;;16.25;12.23;;;;;;;22.31;69.15;94388.41;5050128;28;20273;-56
2022/07/24 05:16:08;;;;;;;13.95;12.73;;;;;;;22.42;69.60;94384.50;5042302;28;20277;-56
2022/07/24 05:18:52;;;;;;;12.80;11.60;;;;;;;22.58;68.85;94380.06;5047922;28;20401;-56
2022/07/24 05:21:36;;;;;;;14.70;13.32;;;;;;;22.67;68.73;94389.63;5048975;28;20240;-56
2022/07/24 05:24:20;;;;;;;13.70;12.48;;;;;;;22.77;68.90;94387.16;5042250;28;20205;-56
2022/07/24 05:27:04;;;;;;;14.63;13.23;;;;;;;22.87;69.08;94378.91;5037822;28;20291;-57
2022/07/24 05:29:48;;;;;;;14.20;12.85;;;;;;;22.94;68.90;94388.41;5048573;28;20324;-56
2022/07/24 05:32:32;;;;;;;14.43;13.00;;;;;;;23.07;68.83;94383.81;5048782;28;20197;-56
2022/07/24 05:35:16;;;;;;;13.40;12.10;;;;;;;23.17;68.46;94387.00;5047298;28;20562;-56
2022/07/24 05:38:00;;;;;;;14.50;13.07;;;;;;;23.30;68.47;94385.97;5046616;28;20298;-56
2022/07/24 05:40:45;;;;;;;14.32;12.85;;;;;;;23.28;68.53;94385.91;5049872;28;20209;-56
2022/07/24 05:43:30;;;;;;;13.25;12.05;;;;;;;23.42;67.53;94382.75;5040942;28;20757;-56
2022/07/24 05:46:14;;;;;;;14.38;12.95;;;;;;;23.60;67.08;94381.19;5043854;28;20206;-56
2022/07/24 05:48:58;;;;;;;16.08;14.40;;;;;;;23.68;66.78;94387.16;5042705;28;20233;-56
2022/07/24 05:51:42;;;;;;;15.43;13.73;;;;;;;23.87;66.38;94390.56;5051263;28;20278;-56
2022/07/24 05:54:25;;;;;;;15.65;14.05;;;;;;;23.95;66.00;94390.78;5046264;28;20220;-56
2022/07/24 05:57:10;;;;;;;15.15;13.82;;;;;;;24.04;65.54;94392.47;5051179;28;20893;-56
2022/07/24 05:59:54;;;;;;;16.52;15.05;;;;;;;24.21;65.61;94394.41;5045533;28;20707;-56
2022/07/24 06:02:38;;;;;;;16.85;15.32;;;;;;;24.39;65.29;94397.78;5049378;28;20292;-56
2022/07/24 06:05:22;;;;;;;15.35;14.05;;;;;;;24.39;65.30;94403.50;5050830;28;20263;-56
2022/07/24 06:08:06;;;;;;;15.52;13.98;;;;;;;24.47;65.52;94405.88;5055880;28;20691;-56
2022/07/24 06:10:51;;;;;;;16.33;14.75;;;;;;;24.63;65.97;94397.00;5044482;28;20240;-56
2022/07/24 06:13:34;;;;;;;18.42;15.20;;;;;;;24.77;65.45;94405.94;5043336;28;20267;-56
2022/07/24 06:16:19;;;;;;;16.58;14.98;;;;;;;24.94;65.22;94394.22;5047392;28;20244;-56
2022/07/24 06:19:03;;;;;;;15.60;14.10;;;;;;;25.12;64.68;94405.41;5049052;28;20209;-56
2022/07/24 06:21:47;;;;;;;14.75;13.32;;;;;;;25.41;62.94;94403.22;5043207;28;20240;-56
2022/07/24 06:24:31;;;;;;;17.20;15.45;;;;;;;25.34;62.41;94403.09;5040721;28;20201;-56
2022/07/24 06:27:15;;;;;;;15.55;14.05;;;;;;;25.52;62.23;94404.91;5049393;28;20226;-56
2022/07/24 06:29:59;;;;;;;15.57;13.98;;;;;;;25.46;62.32;94396.91;5051710;28;20196;-56
2022/07/24 06:32:44;;;;;;;15.18;13.57;;;;;;;25.49;63.00;94400.56;5047085;28;20193;-56
2022/07/24 06:35:32;;;;;;;16.80;14.50;;;;;;;25.85;61.21;94406.41;5040686;28;20196;-56
2022/07/24 06:38:16;;;;;;;15.15;13.75;;;;;;;25.84;61.44;94404.94;5047037;28;20201;-56
2022/07/24 06:41:00;;;;;;;13.32;12.07;;;;;;;25.61;60.93;94406.59;5043910;28;20223;-56
2022/07/24 06:43:44;;;;;;;13.70;12.40;;;;;;;25.96;59.67;94405.94;5039987;28;20317;-56
2022/07/24 06:46:28;;;;;;;14.70;13.15;;;;;;;26.28;60.13;94399.41;5042156;28;20586;-56
2022/07/24 06:49:12;;;;;;;12.02;10.95;;;;;;;26.37;57.47;94401.03;5046992;28;20243;-56
2022/07/24 06:51:56;;;;;;;13.70;12.32;;;;;;;26.45;56.88;94401.19;5052097;28;20201;-56
2022/07/24 06:54:41;;;;;;;13.73;11.52;;;;;;;26.80;56.35;94400.41;5048085;28;20679;-56
2022/07/24 06:57:25;;;;;;;11.50;10.30;;;;;;;26.95;55.28;94393.50;5046100;28;20225;-56
2022/07/24 07:00:11;;;;;;;11.93;10.57;;;;;;;26.91;53.98;94393.41;5052613;28;20256;-56
2022/07/24 07:02:55;;;;;;;10.48;9.48;;;;;;;26.96;53.43;94394.97;5044005;28;20284;-56
2022/07/24 07:05:39;;;;;;;16.13;9.63;;;;;;;27.02;51.77;94402.25;5048075;28;20205;-56
2022/07/24 07:08:22;;;;;;;10.20;9.20;;;;;;;26.73;53.39;94400.97;5053964;28;20220;-56
2022/07/24 07:11:07;;;;;;;11.05;9.52;;;;;;;27.14;52.17;94391.66;5047337;28;20197;-56
2022/07/24 07:13:51;;;;;;;9.52;8.48;;;;;;;27.21;51.42;94395.38;5050191;28;20286;-56
2022/07/24 07:16:35;;;;;;;11.77;8.45;;;;;;;27.42;51.30;94394.25;5052525;28;20348;-56
2022/07/24 07:19:19;;;;;;;9.38;8.38;;;;;;;27.38;49.66;94397.81;5039232;28;20198;-56
2022/07/24 07:22:03;;;;;;;10.52;8.40;;;;;;;27.58;49.45;94402.44;5047099;28;20231;-56
2022/07/24 07:24:47;;;;;;;14.23;9.05;;;;;;;27.72;50.53;94406.25;5040160;28;20318;-55
2022/07/24 07:27:31;;;;;;;9.52;8.52;;;;;;;27.74;48.84;94403.41;5052788;28;20272;-56
2022/07/24 07:30:14;;;;;;;8.43;7.68;;;;;;;27.98;48.30;94402.28;5040460;28;20670;-56
2022/07/24 07:32:58;;;;;;;8.75;7.85;;;;;;;28.05;47.88;94398.78;5052149;28;20190;-56
2022/07/24 07:35:43;;;;;;;8.98;8.07;;;;;;;28.19;48.72;94404.03;5050797;28;20217;-56
2022/07/24 07:38:27;;;;;;;9.13;8.35;;;;;;;28.22;48.46;94408.38;5044677;28;20210;-56
2022/07/24 07:41:11;;;;;;;8.63;7.78;;;;;;;28.27;48.26;94404.13;5044128;28;20733;-56
2022/07/24 07:43:58;;;;;;;9.82;7.68;;;;;;;28.47;47.93;94404.34;5046302;28;20246;-56
2022/07/24 07:46:43;;;;;;;8.15;7.40;;;;;;;28.48;47.73;94408.69;5046204;28;20210;-56
2022/07/24 07:49:27;;;;;;;7.88;7.20;;;;;;;28.58;47.52;94404.50;5046614;28;20222;-56
2022/07/24 07:52:12;;;;;;;7.80;6.95;;;;;;;28.70;45.63;94408.19;5043282;28;20730;-56
2022/07/24 07:54:56;;;;;;;8.07;7.25;;;;;;;28.86;45.52;94401.91;5042441;28;20670;-56
2022/07/24 07:57:41;;;;;;;7.53;6.88;;;;;;;28.89;45.11;94407.00;5043616;28;20214;-56
2022/07/24 08:00:25;;;;;;;7.85;7.05;;;;;;;28.96;45.04;94407.78;5052154;28;20256;-56
2022/07/24 08:03:08;;;;;;;8.82;6.50;;;;;;;29.05;45.47;94402.81;5041537;28;20722;-56
2022/07/24 08:05:52;;;;;;;8.65;5.85;;;;;;;29.18;44.11;94408.00;5051591;28;20197;-56
2022/07/24 08:08:36;;;;;;;7.82;6.90;;;;;;;29.05;43.91;94411.47;5050019;28;20217;-56
2022/07/24 08:11:20;;;;;;;8.10;7.18;;;;;;;28.52;45.62;94408.75;5041600;28;20210;-56
2022/07/24 08:14:04;;;;;;;7.10;6.43;;;;;;;29.01;45.17;94411.44;5044040;28;20256;-56
2022/07/24 08:16:49;;;;;;;8.15;7.22;;;;;;;29.27;45.22;94409.50;5043587;28;20198;-56
2022/07/24 08:19:33;;;;;;;7.57;6.65;;;;;;;29.47;44.79;94411.88;5040565;28;20248;-56
2022/07/24 08:22:17;;;;;;;8.25;6.45;;;;;;;29.49;43.51;94416.94;5050711;28;20197;-56
2022/07/24 08:25:01;;;;;;;8.55;6.93;;;;;;;29.51;43.86;94408.25;5050956;28;20209;-56
2022/07/24 08:27:45;;;;;;;7.47;6.80;;;;;;;29.14;42.87;94402.16;5052115;28;20244;-55
2022/07/24 08:30:29;;;;;;;6.75;5.82;;;;;;;29.56;42.61;94404.00;5043952;28;20197;-55
2022/07/24 08:33:13;;;;;;;8.43;7.43;;;;;;;29.00;42.10;94404.94;5049663;28;20197;-56
2022/07/24 08:35:57;;;;;;;7.40;6.70;;;;;;;29.47;42.75;94408.25;5047797;28;20567;-56
2022/07/24 08:38:41;;;;;;;8.80;6.68;;;;;;;29.94;42.35;94407.13;5039345;28;20547;-56
2022/07/24 08:41:32;;;;;;;7.55;6.72;;;;;;;30.29;41.77;94408.06;5043404;28;20982;-56
2022/07/24 08:44:16;;;;;;;8.60;6.40;;;;;;;30.29;41.52;94398.66;5041032;28;20296;-56
2022/07/24 08:47:00;;;;;;;8.32;7.40;;;;;;;30.16;40.58;94397.88;5052446;28;20709;-56
2022/07/24 08:49:48;;;;;;;7.05;6.35;;;;;;;29.50;41.91;94395.28;5050316;28;20212;-56
2022/07/24 08:52:35;;;;;;;9.02;6.80;;;;;;;29.44;42.43;94403.91;5036312;28;20237;-56
2022/07/24 08:55:19;;;;;;;8.75;6.45;;;;;;;29.00;42.60;94392.69;5046244;28;20200;-56
2022/07/24 08:58:03;;;;;;;8.70;6.68;;;;;;;29.35;42.99;94397.34;5050336;28;20232;-56
2022/07/24 09:00:47;;;;;;;8.73;7.22;;;;;;;29.38;43.69;94403.84;5037425;28;20210;-56
2022/07/24 09:03:43;;;;;;;7.22;6.63;;;;;;;29.44;43.27;94392.34;5051011;28;20248;-56
2022/07/24 09:06:28;;;;;;;9.55;7.35;;;;;;;29.12;43.27;94393.50;5047004;28;20229;-55
2022/07/24 09:09:12;;;;;;;7.63;6.85;;;;;;;28.61;44.39;94394.41;5051447;28;20201;-56
2022/07/24 09:12:15;;;;;;;7.93;7.13;;;;;;;28.63;44.11;94394.44;5048245;28;20340;-56
2022/07/24 09:15:00;;;;;;;7.60;6.90;;;;;;;28.60;43.96;94387.91;5044972;28;20232;-56
2022/07/24 09:17:58;;;;;;;7.22;6.53;;;;;;;29.56;41.85;94395.31;5043429;28;20626;-55
2022/07/24 09:20:42;;;;;;;7.25;6.55;;;;;;;30.43;40.77;94384.22;5051390;28;20292;-56
2022/07/24 09:23:26;;;;;;;8.18;6.40;;;;;;;30.81;40.90;94384.38;5047883;28;20212;-55
2022/07/24 09:26:11;;;;;;;6.88;6.13;;;;;;;31.19;40.37;94383.00;5051135;28;20681;-56
2022/07/24 09:28:55;;;;;;;8.93;6.68;;;;;;;30.99;39.11;94382.94;5040519;28;20582;-56
2022/07/24 09:32:02;;;;;;;7.93;6.55;;;;;;;30.78;39.85;94393.78;5045753;28;20279;-55
2022/07/24 09:34:46;;;;;;;8.52;6.75;;;;;;;31.34;37.85;94382.28;5050974;28;20309;-56
2022/07/24 09:37:31;;;;;;;7.80;6.05;;;;;;;31.14;38.54;94381.56;5047111;28;20205;-56
2022/07/24 09:40:16;;;;;;;8.98;6.18;;;;;;;31.27;38.51;94377.22;5050730;28;20205;-56
2022/07/24 09:43:21;;;;;;;6.88;6.28;;;;;;;31.35;38.25;94377.22;5049939;28;20581;-56
2022/07/24 09:46:09;;;;;;;7.40;6.32;;;;;;;31.97;37.93;94382.22;5048249;28;20248;-56
2022/07/24 09:48:57;;;;;;;6.63;5.97;;;;;;;31.62;37.47;94375.78;5046114;28;20324;-56
2022/07/24 09:51:41;;;;;;;7.10;6.38;;;;;;;32.20;36.87;94382.91;5042972;28;20402;-56
2022/07/24 09:54:31;;;;;;;7.22;6.53;;;;;;;31.84;37.50;94383.00;5044536;28;20201;-56
2022/07/24 09:57:27;;;;;;;7.78;7.00;;;;;;;31.37;39.12;94377.22;5051147;28;20705;-55
2022/07/24 10:00:12;;;;;;;6.18;5.68;;;;;;;31.81;39.55;94381.53;5036301;28;20202;-56
2022/07/24 10:02:59;;;;;;;9.27;7.25;;;;;;;31.88;38.10;94377.19;5048452;28;20293;-56
2022/07/24 10:05:46;;;;;;;10.30;7.05;;;;;;;30.58;40.02;94382.88;5049175;28;20678;-55
2022/07/24 10:08:33;;;;;;;7.40;6.68;;;;;;;31.07;39.84;94383.72;5040657;28;20283;-56
2022/07/24 10:11:18;;;;;;;7.93;7.13;;;;;;;31.09;39.01;94374.31;5047377;28;20213;-55
2022/07/24 10:14:03;;;;;;;8.30;7.10;;;;;;;29.22;42.26;94379.16;5042487;28;20234;-54
2022/07/24 10:17:02;;;;;;;8.02;7.22;;;;;;;29.43;43.19;94373.56;5050075;28;20200;-55
2022/07/24 10:19:48;;;;;;;7.80;7.10;;;;;;;30.07;42.12;94373.97;5040609;28;20699;-54
2022/07/24 10:22:44;;;;;;;7.85;7.05;;;;;;;29.41;42.36;94370.66;5039909;28;20214;-54
2022/07/24 10:25:38;;;;;;;7.57;6.97;;;;;;;29.74;42.65;94367.28;5042047;28;20609;-55
2022/07/24 10:28:43;;;;;;;8.93;6.90;;;;;;;29.87;42.28;94356.53;5051097;28;20196;-54
2022/07/24 10:31:29;;;;;;;8.48;6.97;;;;;;;29.35;40.86;94369.19;5039960;28;20198;-55
2022/07/24 10:34:36;;;;;;;8.23;6.82;;;;;;;30.63;40.06;94355.41;5048755;28;20198;-54
2022/07/24 10:37:37;;;;;;;9.05;6.80;;;;;;;29.99;40.62;94356.63;5043866;28;20273;-55
2022/07/24 10:40:44;;;;;;;7.35;6.65;;;;;;;31.12;37.94;94352.59;5047098;28;20244;-55
2022/07/24 10:43:28;;;;;;;7.40;6.68;;;;;;;31.73;37.55;94345.31;5053936;28;20715;-54
2022/07/24 10:46:12;;;;;;;7.82;6.05;;;;;;;32.07;36.59;94355.38;5045478;28;20251;-54
2022/07/24 10:48:56;;;;;;;6.35;5.75;;;;;;;32.47;36.44;94343.63;5053093;28;20287;-55
2022/07/24 10:51:58;;;;;;;6.28;5.68;;;;;;;32.31;35.02;94345.88;5048903;28;20353;-55
2022/07/24 10:54:43;;;;;;;7.45;6.75;;;;;;;31.09;37.37;94339.56;5049286;28;20201;-54
2022/07/24 10:58:01;;;;;;;7.10;6.40;;;;;;;31.20;36.40;94338.84;5052393;28;20574;-55
2022/07/24 11:00:49;;;;;;;7.57;6.95;;;;;;;30.97;38.55;94333.75;5023304;28;20231;-54
2022/07/24 11:03:33;;;;;;;6.50;5.90;;;;;;;31.55;37.05;94336.63;5047011;28;20731;-55
2022/07/24 11:06:17;;;;;;;7.03;6.38;;;;;;;31.09;36.84;94336.69;5051396;28;20237;-54
2022/07/24 11:09:02;;;;;;;7.20;6.50;;;;;;;30.55;39.17;94343.81;5053659;28;20261;-55
2022/07/24 11:12:07;;;;;;;7.43;6.72;;;;;;;30.64;38.78;94350.34;5047922;28;20201;-55
2022/07/24 11:14:51;;;;;;;7.70;6.93;;;;;;;30.40;39.08;94333.63;5048174;28;20201;-55
2022/07/24 11:17:39;;;;;;;6.57;6.03;;;;;;;30.04;39.12;94329.16;5041825;28;20198;-54
2022/07/24 11:20:23;;;;;;;6.53;5.88;;;;;;;30.89;37.97;94326.50;5051041;28;20205;-55
2022/07/24 11:23:21;;;;;;;7.07;5.70;;;;;;;30.07;38.53;94327.72;5046097;28;20226;-55
2022/07/24 11:26:35;;;;;;;6.60;5.93;;;;;;;30.95;37.89;94323.63;5047272;28;20700;-55
2022/07/24 11:29:22;;;;;;;6.43;5.82;;;;;;;31.39;36.02;94316.38;5052328;28;20216;-55
2022/07/24 11:32:14;;;;;;;7.05;5.95;;;;;;;32.14;35.63;94322.03;5053119;28;20205;-55
2022/07/24 11:34:59;;;;;;;8.77;5.80;;;;;;;32.09;35.24;94306.09;5048247;28;20263;-55
2022/07/24 11:37:43;;;;;;;6.35;5.75;;;;;;;32.34;33.31;94318.31;5051099;28;20245;-55
2022/07/24 11:40:28;;;;;;;7.63;5.47;;;;;;;31.42;34.54;94312.03;5047611;28;20245;-55
2022/07/24 11:43:12;;;;;;;6.78;4.90;;;;;;;32.18;32.00;94310.41;5050429;28;20248;-55
2022/07/24 11:45:56;;;;;;;5.88;5.20;;;;;;;32.04;33.17;94313.34;5051696;28;20333;-55
2022/07/24 11:48:40;;;;;;;6.85;6.25;;;;;;;31.18;35.18;94300.47;5047666;28;20213;-55
2022/07/24 11:51:24;;;;;;;6.43;5.78;;;;;;;30.10;36.38;94314.75;5050023;28;20197;-55
2022/07/24 11:54:09;;;;;;;6.00;5.40;;;;;;;31.65;34.74;94304.78;5051800;28;20217;-54
2022/07/24 11:56:56;;;;;;;5.50;5.10;;;;;;;31.35;34.46;94307.72;5053840;28;20276;-54
2022/07/24 11:59:40;;;;;;;7.00;5.30;;;;;;;31.61;31.35;94298.97;5038311;28;20577;-54
2022/07/24 12:02:25;;;;;;;5.72;5.10;;;;;;;31.14;32.58;94294.69;5044675;28;20264;-54
2022/07/24 12:05:09;;;;;;;9.23;6.22;;;;;;;31.30;34.52;94300.47;5052841;28;20201;-54
2022/07/24 12:07:56;;;;;;;6.82;5.32;;;;;;;31.87;33.22;94283.69;5048461;28;20234;-54
2022/07/24 12:10:40;;;;;;;6.85;5.25;;;;;;;32.40;32.46;94290.00;5047789;28;20686;-54
2022/07/24 12:13:26;;;;;;;6.63;5.82;;;;;;;32.51;30.95;94287.75;5047911;28;20189;-54
2022/07/24 12:16:11;;;;;;;5.75;5.13;;;;;;;32.13;30.99;94280.00;5050535;28;20220;-54
2022/07/24 12:19:14;;;;;;;5.50;4.80;;;;;;;32.00;31.75;94285.09;5048834;28;20197;-54
2022/07/24 12:21:59;;;;;;;7.57;5.10;;;;;;;32.74;30.46;94286.19;5042345;28;20701;-54
2022/07/24 12:24:42;;;;;;;5.70;4.63;;;;;;;32.83;29.68;94269.44;5039291;28;20285;-54
2022/07/24 12:27:40;;;;;;;6.93;4.45;;;;;;;32.75;28.78;94281.09;5052688;28;20260;-54
2022/07/24 12:30:30;;;;;;;6.10;5.43;;;;;;;32.89;30.59;94270.09;5042495;28;20202;-55
2022/07/24 12:33:15;;;;;;;6.18;4.82;;;;;;;32.63;30.06;94275.34;5046945;28;20190;-54
2022/07/24 12:36:11;;;;;;;9.10;5.63;;;;;;;32.49;31.18;94268.19;5049351;28;20661;-55
2022/07/24 12:38:56;;;;;;;5.95;5.35;;;;;;;31.20;32.22;94269.34;5049911;28;20260;-54
2022/07/24 12:41:47;;;;;;;5.85;5.25;;;;;;;31.82;32.84;94264.16;5051229;28;20212;-55
2022/07/24 12:44:43;;;;;;;6.85;5.35;;;;;;;32.07;30.92;94266.22;5043110;28;20257;-55
2022/07/24 12:47:27;;;;;;;6.25;4.95;;;;;;;32.33;30.90;94256.69;5046569;28;20233;-55
2022/07/24 12:50:12;;;;;;;6.30;5.22;;;;;;;31.96;30.45;94261.19;5039129;28;20232;-55